sensor_id;sensor_type;location;lat;lon;timestamp;temperature;humidity
10812;DHT22;5458;51.496;7.334;2022-12-13T00:01:11;-0.20;99.90
10812;DHT22;5458;51.496;7.334;2022-12-13T00:03:37;-0.30;99.90
10812;DHT22;5458;51.496;7.334;2022-12-13T00:06:06;-0.40;99.90
10812;DHT22;5458;51.496;7.334;2022-12-13T00:08:32;-0.40;99.90
10812;DHT22;5458;51.496;7.334;2022-12-13T00:11:00;-0.40;99.90
10812;DHT22;5458;51.496;7.334;2022-12-13T00:13:26;-0.50;99.90
10812;DHT22;5458;51.496;7.334;2022-12-13T00:16:01;-0.50;99.90
10812;DHT22;5458;51.496;7.334;2022-12-13T00:18:27;-0.50;99.90
10812;DHT22;5458;51.496;7.334;2022-12-13T00:20:53;-0.50;99.90
10812;DHT22;5458;51.496;7.334;2022-12-13T00:23:19;-0.50;99.90
10812;DHT22;5458;51.496;7.334;2022-12-13T00:25:45;-0.40;99.90
10812;DHT22;5458;51.496;7.334;2022-12-13T00:28:12;-0.50;99.90
10812;DHT22;5458;51.496;7.334;2022-12-13T00:30:37;-0.50;99.90
10812;DHT22;5458;51.496;7.334;2022-12-13T00:33:04;-0.50;99.90
10812;DHT22;5458;51.496;7.334;2022-12-13T00:35:31;-0.60;99.90
10812;DHT22;5458;51.496;7.334;2022-12-13T00:37:57;-0.60;99.90
10812;DHT22;5458;51.496;7.334;2022-12-13T00:40:23;-0.60;99.90
10812;DHT22;5458;51.496;7.334;2022-12-13T00:42:48;-0.60;99.90
10812;DHT22;5458;51.496;7.334;2022-12-13T00:45:14;-0.70;99.90
10812;DHT22;5458;51.496;7.334;2022-12-13T00:47:39;-0.70;99.90
10812;DHT22;5458;51.496;7.334;2022-12-13T00:50:05;-0.80;99.90
10812;DHT22;5458;51.496;7.334;2022-12-13T00:52:33;-0.80;99.90
10812;DHT22;5458;51.496;7.334;2022-12-13T00:54:58;-0.80;99.90
10812;DHT22;5458;51.496;7.334;2022-12-13T00:57:24;-0.80;99.90
10812;DHT22;5458;51.496;7.334;2022-12-13T00:59:51;-0.80;99.90
10812;DHT22;5458;51.496;7.334;2022-12-13T01:02:16;-0.80;99.90
10812;DHT22;5458;51.496;7.334;2022-12-13T01:04:42;-0.80;99.90
10812;DHT22;5458;51.496;7.334;2022-12-13T01:07:07;-0.80;99.90
10812;DHT22;5458;51.496;7.334;2022-12-13T01:09:33;-0.80;99.90
10812;DHT22;5458;51.496;7.334;2022-12-13T01:12:01;-0.80;99.90
10812;DHT22;5458;51.496;7.334;2022-12-13T01:14:27;-0.80;99.90
10812;DHT22;5458;51.496;7.334;2022-12-13T01:16:53;-0.90;99.90
10812;DHT22;5458;51.496;7.334;2022-12-13T01:19:21;-0.90;99.90
10812;DHT22;5458;51.496;7.334;2022-12-13T01:21:47;-0.90;99.90
10812;DHT22;5458;51.496;7.334;2022-12-13T01:24:13;-0.90;99.90
10812;DHT22;5458;51.496;7.334;2022-12-13T01:26:39;-0.90;99.90
10812;DHT22;5458;51.496;7.334;2022-12-13T01:29:05;-0.90;99.90
10812;DHT22;5458;51.496;7.334;2022-12-13T01:31:30;-0.90;99.90
10812;DHT22;5458;51.496;7.334;2022-12-13T01:33:56;-0.90;99.90
10812;DHT22;5458;51.496;7.334;2022-12-13T01:36:23;-1.00;99.90
10812;DHT22;5458;51.496;7.334;2022-12-13T01:38:48;-0.90;99.90
10812;DHT22;5458;51.496;7.334;2022-12-13T01:41:18;-1.00;99.90
10812;DHT22;5458;51.496;7.334;2022-12-13T01:46:15;-1.00;99.90
10812;DHT22;5458;51.496;7.334;2022-12-13T01:49:19;-1.00;99.90
10812;DHT22;5458;51.496;7.334;2022-12-13T01:51:53;-1.00;99.90
10812;DHT22;5458;51.496;7.334;2022-12-13T01:54:24;-1.00;99.90
10812;DHT22;5458;51.496;7.334;2022-12-13T01:56:53;-1.10;99.90
10812;DHT22;5458;51.496;7.334;2022-12-13T01:59:21;-1.00;99.90
10812;DHT22;5458;51.496;7.334;2022-12-13T02:01:48;-1.00;99.90
10812;DHT22;5458;51.496;7.334;2022-12-13T02:04:18;-1.10;99.90
10812;DHT22;5458;51.496;7.334;2022-12-13T02:06:45;-1.10;99.90
10812;DHT22;5458;51.496;7.334;2022-12-13T02:09:11;-1.10;99.90
10812;DHT22;5458;51.496;7.334;2022-12-13T02:11:40;-1.10;99.90
10812;DHT22;5458;51.496;7.334;2022-12-13T02:14:06;-1.10;99.90
10812;DHT22;5458;51.496;7.334;2022-12-13T02:50:36;-1.30;99.90
10812;DHT22;5458;51.496;7.334;2022-12-13T02:53:04;-1.30;99.90
10812;DHT22;5458;51.496;7.334;2022-12-13T02:55:30;-1.30;99.90
10812;DHT22;5458;51.496;7.334;2022-12-13T02:57:59;-1.30;99.90
10812;DHT22;5458;51.496;7.334;2022-12-13T03:00:45;-1.30;99.90
10812;DHT22;5458;51.496;7.334;2022-12-13T03:03:42;-1.30;99.90
10812;DHT22;5458;51.496;7.334;2022-12-13T03:06:34;-1.40;99.90
10812;DHT22;5458;51.496;7.334;2022-12-13T03:18:06;-1.50;99.90
10812;DHT22;5458;51.496;7.334;2022-12-13T03:20:55;-1.50;99.90
10812;DHT22;5458;51.496;7.334;2022-12-13T03:23:22;-1.50;99.90
10812;DHT22;5458;51.496;7.334;2022-12-13T03:25:51;-1.50;99.90
10812;DHT22;5458;51.496;7.334;2022-12-13T03:28:18;-1.50;99.90
10812;DHT22;5458;51.496;7.334;2022-12-13T03:30:43;-1.50;99.90
10812;DHT22;5458;51.496;7.334;2022-12-13T03:33:09;-1.50;99.90
10812;DHT22;5458;51.496;7.334;2022-12-13T03:35:35;-1.60;99.90
10812;DHT22;5458;51.496;7.334;2022-12-13T03:38:01;-1.60;99.90
10812;DHT22;5458;51.496;7.334;2022-12-13T03:40:28;-1.60;99.90
10812;DHT22;5458;51.496;7.334;2022-12-13T03:42:55;-1.60;99.90
10812;DHT22;5458;51.496;7.334;2022-12-13T03:45:21;-1.60;99.90
10812;DHT22;5458;51.496;7.334;2022-12-13T03:47:46;-1.60;99.90
10812;DHT22;5458;51.496;7.334;2022-12-13T03:50:12;-1.60;99.90
10812;DHT22;5458;51.496;7.334;2022-12-13T03:52:37;-1.60;99.90
10812;DHT22;5458;51.496;7.334;2022-12-13T03:55:03;-1.60;99.90
10812;DHT22;5458;51.496;7.334;2022-12-13T03:57:29;-1.60;99.90
10812;DHT22;5458;51.496;7.334;2022-12-13T03:59:55;-1.70;99.90
10812;DHT22;5458;51.496;7.334;2022-12-13T04:02:20;-1.70;99.90
10812;DHT22;5458;51.496;7.334;2022-12-13T04:04:46;-1.70;99.90
10812;DHT22;5458;51.496;7.334;2022-12-13T04:07:12;-1.80;99.90
10812;DHT22;5458;51.496;7.334;2022-12-13T04:09:37;-1.80;99.90
10812;DHT22;5458;51.496;7.334;2022-12-13T04:12:03;-1.80;99.90
10812;DHT22;5458;51.496;7.334;2022-12-13T04:14:47;-1.80;99.90
10812;DHT22;5458;51.496;7.334;2022-12-13T04:17:13;-1.80;99.90
10812;DHT22;5458;51.496;7.334;2022-12-13T04:19:39;-1.80;99.90
10812;DHT22;5458;51.496;7.334;2022-12-13T04:22:04;-1.80;99.90
10812;DHT22;5458;51.496;7.334;2022-12-13T04:24:30;-1.80;99.90
10812;DHT22;5458;51.496;7.334;2022-12-13T04:26:55;-1.80;99.90
10812;DHT22;5458;51.496;7.334;2022-12-13T04:29:21;-1.80;99.90
10812;DHT22;5458;51.496;7.334;2022-12-13T04:31:47;-1.80;99.90
10812;DHT22;5458;51.496;7.334;2022-12-13T04:34:13;-1.80;99.90
10812;DHT22;5458;51.496;7.334;2022-12-13T04:36:38;-1.80;99.90
10812;DHT22;5458;51.496;7.334;2022-12-13T04:39:04;-1.80;99.90
10812;DHT22;5458;51.496;7.334;2022-12-13T04:41:35;-1.80;99.90
10812;DHT22;5458;51.496;7.334;2022-12-13T04:44:02;-1.80;99.90
10812;DHT22;5458;51.496;7.334;2022-12-13T04:46:28;-1.80;99.90
10812;DHT22;5458;51.496;7.334;2022-12-13T04:48:53;-1.90;99.90
10812;DHT22;5458;51.496;7.334;2022-12-13T04:51:19;-1.90;99.90
10812;DHT22;5458;51.496;7.334;2022-12-13T04:53:44;-1.90;99.90
10812;DHT22;5458;51.496;7.334;2022-12-13T04:56:10;-1.90;99.90
10812;DHT22;5458;51.496;7.334;2022-12-13T04:58:36;-1.90;99.90
10812;DHT22;5458;51.496;7.334;2022-12-13T05:01:04;-1.90;99.90
10812;DHT22;5458;51.496;7.334;2022-12-13T05:03:30;-2.00;99.90
10812;DHT22;5458;51.496;7.334;2022-12-13T05:05:55;-2.00;99.90
10812;DHT22;5458;51.496;7.334;2022-12-13T05:08:21;-2.00;99.90
10812;DHT22;5458;51.496;7.334;2022-12-13T05:10:46;-2.00;99.90
10812;DHT22;5458;51.496;7.334;2022-12-13T05:13:12;-2.00;99.90
10812;DHT22;5458;51.496;7.334;2022-12-13T05:15:38;-2.00;99.90
10812;DHT22;5458;51.496;7.334;2022-12-13T05:18:05;-2.00;99.90
10812;DHT22;5458;51.496;7.334;2022-12-13T05:20:31;-2.10;99.90
10812;DHT22;5458;51.496;7.334;2022-12-13T05:22:58;-2.00;99.90
10812;DHT22;5458;51.496;7.334;2022-12-13T05:25:24;-2.00;99.90
10812;DHT22;5458;51.496;7.334;2022-12-13T05:27:50;-2.00;99.90
10812;DHT22;5458;51.496;7.334;2022-12-13T05:30:16;-2.10;99.90
10812;DHT22;5458;51.496;7.334;2022-12-13T05:32:41;-2.10;99.90
10812;DHT22;5458;51.496;7.334;2022-12-13T05:35:07;-2.10;99.90
10812;DHT22;5458;51.496;7.334;2022-12-13T05:37:33;-2.10;99.90
10812;DHT22;5458;51.496;7.334;2022-12-13T05:39:59;-2.10;99.90
10812;DHT22;5458;51.496;7.334;2022-12-13T05:42:24;-2.10;99.90
10812;DHT22;5458;51.496;7.334;2022-12-13T05:44:53;-2.10;99.90
10812;DHT22;5458;51.496;7.334;2022-12-13T05:47:19;-2.10;99.90
10812;DHT22;5458;51.496;7.334;2022-12-13T05:49:44;-2.10;99.90
10812;DHT22;5458;51.496;7.334;2022-12-13T05:52:20;-2.10;99.90
10812;DHT22;5458;51.496;7.334;2022-12-13T05:54:46;-2.10;99.90
10812;DHT22;5458;51.496;7.334;2022-12-13T05:57:12;-2.10;99.90
10812;DHT22;5458;51.496;7.334;2022-12-13T05:59:38;-2.10;99.90
10812;DHT22;5458;51.496;7.334;2022-12-13T06:02:04;-2.10;99.90
10812;DHT22;5458;51.496;7.334;2022-12-13T06:04:29;-2.10;99.90
10812;DHT22;5458;51.496;7.334;2022-12-13T06:06:55;-2.20;99.90
10812;DHT22;5458;51.496;7.334;2022-12-13T06:09:21;-2.20;99.90
10812;DHT22;5458;51.496;7.334;2022-12-13T06:11:48;-2.20;99.90
10812;DHT22;5458;51.496;7.334;2022-12-13T06:14:14;-2.20;99.90
10812;DHT22;5458;51.496;7.334;2022-12-13T06:16:40;-2.20;99.90
10812;DHT22;5458;51.496;7.334;2022-12-13T06:19:06;-2.20;99.90
10812;DHT22;5458;51.496;7.334;2022-12-13T06:21:32;-2.20;99.90
10812;DHT22;5458;51.496;7.334;2022-12-13T06:23:58;-2.30;99.90
10812;DHT22;5458;51.496;7.334;2022-12-13T06:26:24;-2.30;99.90
10812;DHT22;5458;51.496;7.334;2022-12-13T06:28:49;-2.30;99.90
10812;DHT22;5458;51.496;7.334;2022-12-13T06:31:15;-2.30;99.90
10812;DHT22;5458;51.496;7.334;2022-12-13T06:33:40;-2.30;99.90
10812;DHT22;5458;51.496;7.334;2022-12-13T06:36:07;-2.30;99.90
10812;DHT22;5458;51.496;7.334;2022-12-13T06:38:32;-2.30;99.90
10812;DHT22;5458;51.496;7.334;2022-12-13T06:41:12;-2.40;99.90
10812;DHT22;5458;51.496;7.334;2022-12-13T06:43:40;-2.40;99.90
10812;DHT22;5458;51.496;7.334;2022-12-13T06:46:07;-2.40;99.90
10812;DHT22;5458;51.496;7.334;2022-12-13T06:48:32;-2.40;99.90
10812;DHT22;5458;51.496;7.334;2022-12-13T06:51:03;-2.40;99.90
10812;DHT22;5458;51.496;7.334;2022-12-13T06:53:29;-2.40;99.90
10812;DHT22;5458;51.496;7.334;2022-12-13T06:55:55;-2.40;99.90
10812;DHT22;5458;51.496;7.334;2022-12-13T06:58:21;-2.40;99.90
10812;DHT22;5458;51.496;7.334;2022-12-13T07:00:47;-2.40;99.90
10812;DHT22;5458;51.496;7.334;2022-12-13T07:03:13;-2.40;99.90
10812;DHT22;5458;51.496;7.334;2022-12-13T07:05:39;-2.40;99.90
10812;DHT22;5458;51.496;7.334;2022-12-13T07:08:04;-2.40;99.90
10812;DHT22;5458;51.496;7.334;2022-12-13T07:10:31;-2.50;99.90
10812;DHT22;5458;51.496;7.334;2022-12-13T07:12:57;-2.50;99.90
10812;DHT22;5458;51.496;7.334;2022-12-13T07:15:23;-2.50;99.90
10812;DHT22;5458;51.496;7.334;2022-12-13T07:17:49;-2.50;99.90
10812;DHT22;5458;51.496;7.334;2022-12-13T07:20:15;-2.50;99.90
10812;DHT22;5458;51.496;7.334;2022-12-13T07:22:41;-2.50;99.90
10812;DHT22;5458;51.496;7.334;2022-12-13T07:25:07;-2.50;99.90
10812;DHT22;5458;51.496;7.334;2022-12-13T07:27:33;-2.50;99.90
10812;DHT22;5458;51.496;7.334;2022-12-13T07:29:59;-2.50;99.90
10812;DHT22;5458;51.496;7.334;2022-12-13T07:32:25;-2.40;99.90
10812;DHT22;5458;51.496;7.334;2022-12-13T07:34:50;-2.40;99.90
10812;DHT22;5458;51.496;7.334;2022-12-13T07:37:16;-2.50;99.90
10812;DHT22;5458;51.496;7.334;2022-12-13T07:39:42;-2.50;99.90
10812;DHT22;5458;51.496;7.334;2022-12-13T07:42:07;-2.50;99.90
10812;DHT22;5458;51.496;7.334;2022-12-13T07:44:33;-2.40;99.90
10812;DHT22;5458;51.496;7.334;2022-12-13T07:46:59;-2.40;99.90
10812;DHT22;5458;51.496;7.334;2022-12-13T07:49:24;-2.40;99.90
10812;DHT22;5458;51.496;7.334;2022-12-13T07:51:50;-2.40;99.90
10812;DHT22;5458;51.496;7.334;2022-12-13T07:54:15;-2.40;99.90
10812;DHT22;5458;51.496;7.334;2022-12-13T07:56:41;-2.40;99.90
10812;DHT22;5458;51.496;7.334;2022-12-13T07:59:08;-2.40;99.90
10812;DHT22;5458;51.496;7.334;2022-12-13T08:01:34;-2.40;99.90
10812;DHT22;5458;51.496;7.334;2022-12-13T08:04:01;-2.40;99.90
10812;DHT22;5458;51.496;7.334;2022-12-13T08:06:26;-2.40;99.90
10812;DHT22;5458;51.496;7.334;2022-12-13T08:08:56;-2.30;99.90
10812;DHT22;5458;51.496;7.334;2022-12-13T08:11:22;-2.30;99.90
10812;DHT22;5458;51.496;7.334;2022-12-13T08:13:48;-2.20;99.90
10812;DHT22;5458;51.496;7.334;2022-12-13T08:16:16;-2.20;99.90
10812;DHT22;5458;51.496;7.334;2022-12-13T08:18:45;-2.20;99.90
10812;DHT22;5458;51.496;7.334;2022-12-13T08:21:14;-2.20;99.90
10812;DHT22;5458;51.496;7.334;2022-12-13T08:23:40;-2.20;99.90
10812;DHT22;5458;51.496;7.334;2022-12-13T08:26:07;-2.10;99.90
10812;DHT22;5458;51.496;7.334;2022-12-13T08:28:33;-2.00;99.90
10812;DHT22;5458;51.496;7.334;2022-12-13T08:31:07;-2.00;99.90
10812;DHT22;5458;51.496;7.334;2022-12-13T08:33:35;-2.00;99.90
10812;DHT22;5458;51.496;7.334;2022-12-13T08:36:12;-2.00;99.90
10812;DHT22;5458;51.496;7.334;2022-12-13T08:38:40;-2.00;99.90
10812;DHT22;5458;51.496;7.334;2022-12-13T08:41:06;-1.90;99.90
10812;DHT22;5458;51.496;7.334;2022-12-13T08:43:32;-2.00;99.90
10812;DHT22;5458;51.496;7.334;2022-12-13T08:45:57;-1.90;99.90
10812;DHT22;5458;51.496;7.334;2022-12-13T08:48:23;-1.90;99.90
10812;DHT22;5458;51.496;7.334;2022-12-13T08:50:48;-1.90;99.90
10812;DHT22;5458;51.496;7.334;2022-12-13T08:53:14;-1.80;99.90
10812;DHT22;5458;51.496;7.334;2022-12-13T08:55:40;-1.70;99.90
10812;DHT22;5458;51.496;7.334;2022-12-13T08:58:05;-1.70;99.90
10812;DHT22;5458;51.496;7.334;2022-12-13T09:00:33;-1.60;99.90
10812;DHT22;5458;51.496;7.334;2022-12-13T09:02:59;-1.60;99.90
10812;DHT22;5458;51.496;7.334;2022-12-13T09:05:26;-1.30;99.90
10812;DHT22;5458;51.496;7.334;2022-12-13T09:07:55;-1.00;99.90
10812;DHT22;5458;51.496;7.334;2022-12-13T09:10:22;-0.60;99.90
10812;DHT22;5458;51.496;7.334;2022-12-13T09:12:48;0.00;99.90
10812;DHT22;5458;51.496;7.334;2022-12-13T09:15:14;1.20;99.90
10812;DHT22;5458;51.496;7.334;2022-12-13T09:17:39;3.30;99.80
10812;DHT22;5458;51.496;7.334;2022-12-13T09:20:07;5.90;96.30
10812;DHT22;5458;51.496;7.334;2022-12-13T09:22:34;8.40;92.00
10812;DHT22;5458;51.496;7.334;2022-12-13T09:25:01;10.40;81.80
10812;DHT22;5458;51.496;7.334;2022-12-13T09:27:27;12.00;73.40
10812;DHT22;5458;51.496;7.334;2022-12-13T09:29:53;13.10;66.00
10812;DHT22;5458;51.496;7.334;2022-12-13T09:32:18;13.80;61.80
10812;DHT22;5458;51.496;7.334;2022-12-13T09:34:44;14.30;58.40
10812;DHT22;5458;51.496;7.334;2022-12-13T09:37:09;14.70;56.70
10812;DHT22;5458;51.496;7.334;2022-12-13T09:39:37;15.00;54.50
10812;DHT22;5458;51.496;7.334;2022-12-13T09:42:04;15.20;52.90
10812;DHT22;5458;51.496;7.334;2022-12-13T09:44:35;15.40;52.50
10812;DHT22;5458;51.496;7.334;2022-12-13T09:47:03;15.50;51.10
10812;DHT22;5458;51.496;7.334;2022-12-13T09:49:37;15.60;50.90
10812;DHT22;5458;51.496;7.334;2022-12-13T09:52:06;15.40;50.30
10812;DHT22;5458;51.496;7.334;2022-12-13T09:54:36;15.10;49.90
10812;DHT22;5458;51.496;7.334;2022-12-13T09:57:02;14.60;50.60
10812;DHT22;5458;51.496;7.334;2022-12-13T09:59:31;13.90;50.80
10812;DHT22;5458;51.496;7.334;2022-12-13T10:02:13;13.30;51.90
10812;DHT22;5458;51.496;7.334;2022-12-13T10:04:39;12.90;51.80
10812;DHT22;5458;51.496;7.334;2022-12-13T10:07:13;13.10;52.40
10812;DHT22;5458;51.496;7.334;2022-12-13T10:09:42;13.50;51.20
10812;DHT22;5458;51.496;7.334;2022-12-13T10:12:10;13.80;51.30
10812;DHT22;5458;51.496;7.334;2022-12-13T10:14:40;13.90;51.60
10812;DHT22;5458;51.496;7.334;2022-12-13T10:17:08;13.40;51.50
10812;DHT22;5458;51.496;7.334;2022-12-13T10:19:42;12.10;53.10
10812;DHT22;5458;51.496;7.334;2022-12-13T10:22:12;10.40;54.80
10812;DHT22;5458;51.496;7.334;2022-12-13T10:30:17;6.80;69.20
10812;DHT22;5458;51.496;7.334;2022-12-13T10:33:00;6.00;74.10
10812;DHT22;5458;51.496;7.334;2022-12-13T10:35:33;5.60;77.60
10812;DHT22;5458;51.496;7.334;2022-12-13T10:38:46;5.20;79.90
10812;DHT22;5458;51.496;7.334;2022-12-13T10:40:47;4.90;82.90
10812;DHT22;5458;51.496;7.334;2022-12-13T10:43:18;4.70;85.20
10812;DHT22;5458;51.496;7.334;2022-12-13T10:48:47;4.50;83.10
10812;DHT22;5458;51.496;7.334;2022-12-13T10:51:16;4.30;82.50
10812;DHT22;5458;51.496;7.334;2022-12-13T10:53:57;4.20;83.50
10812;DHT22;5458;51.496;7.334;2022-12-13T10:56:45;4.20;84.40
10812;DHT22;5458;51.496;7.334;2022-12-13T11:01:45;4.00;84.90
10812;DHT22;5458;51.496;7.334;2022-12-13T11:04:32;3.90;84.90
10812;DHT22;5458;51.496;7.334;2022-12-13T11:07:01;3.80;84.60
10812;DHT22;5458;51.496;7.334;2022-12-13T11:09:44;3.70;85.60
10812;DHT22;5458;51.496;7.334;2022-12-13T11:12:15;3.60;86.80
10812;DHT22;5458;51.496;7.334;2022-12-13T11:17:20;3.40;90.10
10812;DHT22;5458;51.496;7.334;2022-12-13T11:20:05;3.40;90.80
10812;DHT22;5458;51.496;7.334;2022-12-13T11:22:35;3.40;90.90
10812;DHT22;5458;51.496;7.334;2022-12-13T11:25:02;3.40;91.70
10812;DHT22;5458;51.496;7.334;2022-12-13T11:30:20;3.40;93.00
10812;DHT22;5458;51.496;7.334;2022-12-13T11:33:05;3.50;92.70
10812;DHT22;5458;51.496;7.334;2022-12-13T11:38:35;3.40;91.40
10812;DHT22;5458;51.496;7.334;2022-12-13T11:41:21;3.30;91.00
10812;DHT22;5458;51.496;7.334;2022-12-13T11:46:53;3.40;91.70
10812;DHT22;5458;51.496;7.334;2022-12-13T11:49:39;3.30;92.20
10812;DHT22;5458;51.496;7.334;2022-12-13T11:52:35;3.40;92.50
10812;DHT22;5458;51.496;7.334;2022-12-13T11:55:15;3.50;92.30
10812;DHT22;5458;51.496;7.334;2022-12-13T12:00:33;3.40;91.90
10812;DHT22;5458;51.496;7.334;2022-12-13T12:03:21;3.60;92.00
10812;DHT22;5458;51.496;7.334;2022-12-13T12:06:03;3.60;91.70
10812;DHT22;5458;51.496;7.334;2022-12-13T12:13:42;3.40;91.20
10812;DHT22;5458;51.496;7.334;2022-12-13T12:16:50;3.40;91.40
10812;DHT22;5458;51.496;7.334;2022-12-13T12:19:17;3.40;90.90
10812;DHT22;5458;51.496;7.334;2022-12-13T12:27:45;3.40;90.90
10812;DHT22;5458;51.496;7.334;2022-12-13T12:30:23;3.30;90.00
10812;DHT22;5458;51.496;7.334;2022-12-13T12:38:47;3.30;90.70
10812;DHT22;5458;51.496;7.334;2022-12-13T12:44:39;3.30;90.30
10812;DHT22;5458;51.496;7.334;2022-12-13T12:47:33;3.20;90.10
10812;DHT22;5458;51.496;7.334;2022-12-13T12:59:10;3.00;90.40
10812;DHT22;5458;51.496;7.334;2022-12-13T13:04:26;2.90;91.00
10812;DHT22;5458;51.496;7.334;2022-12-13T13:07:03;2.80;91.90
10812;DHT22;5458;51.496;7.334;2022-12-13T13:09:32;2.80;91.60
10812;DHT22;5458;51.496;7.334;2022-12-13T13:12:02;2.70;91.90
10812;DHT22;5458;51.496;7.334;2022-12-13T13:16:54;2.70;92.40
10812;DHT22;5458;51.496;7.334;2022-12-13T13:21:47;2.80;92.10
10812;DHT22;5458;51.496;7.334;2022-12-13T13:24:16;2.80;91.60
10812;DHT22;5458;51.496;7.334;2022-12-13T13:26:48;2.80;91.50
10812;DHT22;5458;51.496;7.334;2022-12-13T13:32:22;2.70;90.80
10812;DHT22;5458;51.496;7.334;2022-12-13T13:34:49;2.70;90.90
10812;DHT22;5458;51.496;7.334;2022-12-13T13:39:59;2.70;90.60
10812;DHT22;5458;51.496;7.334;2022-12-13T13:42:29;2.60;90.20
10812;DHT22;5458;51.496;7.334;2022-12-13T14:04:17;2.80;91.10
10812;DHT22;5458;51.496;7.334;2022-12-13T14:07:09;2.70;91.10
10812;DHT22;5458;51.496;7.334;2022-12-13T14:20:53;2.60;91.10
10812;DHT22;5458;51.496;7.334;2022-12-13T14:24:15;2.60;91.10
10812;DHT22;5458;51.496;7.334;2022-12-13T14:26:24;2.60;91.10
10812;DHT22;5458;51.496;7.334;2022-12-13T14:28:59;2.60;90.80
10812;DHT22;5458;51.496;7.334;2022-12-13T14:31:35;2.40;90.70
10812;DHT22;5458;51.496;7.334;2022-12-13T14:34:03;2.30;90.60
10812;DHT22;5458;51.496;7.334;2022-12-13T14:36:31;2.30;91.30
10812;DHT22;5458;51.496;7.334;2022-12-13T14:39:06;2.30;91.50
10812;DHT22;5458;51.496;7.334;2022-12-13T14:41:48;2.30;92.20
10812;DHT22;5458;51.496;7.334;2022-12-13T14:44:36;2.30;92.20
10812;DHT22;5458;51.496;7.334;2022-12-13T14:47:03;2.20;92.80
10812;DHT22;5458;51.496;7.334;2022-12-13T14:49:32;2.20;93.20
10812;DHT22;5458;51.496;7.334;2022-12-13T14:52:25;2.10;93.00
10812;DHT22;5458;51.496;7.334;2022-12-13T14:54:58;2.10;92.60
10812;DHT22;5458;51.496;7.334;2022-12-13T14:57:27;2.10;92.40
10812;DHT22;5458;51.496;7.334;2022-12-13T14:59:55;2.10;92.70
10812;DHT22;5458;51.496;7.334;2022-12-13T15:02:24;2.10;92.80
10812;DHT22;5458;51.496;7.334;2022-12-13T15:04:55;2.10;92.90
10812;DHT22;5458;51.496;7.334;2022-12-13T15:10:04;2.10;93.50
10812;DHT22;5458;51.496;7.334;2022-12-13T15:12:30;2.10;93.80
10812;DHT22;5458;51.496;7.334;2022-12-13T15:19:55;2.00;94.30
10812;DHT22;5458;51.496;7.334;2022-12-13T15:22:21;2.00;94.50
10812;DHT22;5458;51.496;7.334;2022-12-13T15:24:47;1.90;94.80
10812;DHT22;5458;51.496;7.334;2022-12-13T15:27:15;2.00;94.90
10812;DHT22;5458;51.496;7.334;2022-12-13T15:29:42;2.00;95.00
10812;DHT22;5458;51.496;7.334;2022-12-13T15:32:13;1.90;95.10
10812;DHT22;5458;51.496;7.334;2022-12-13T15:34:40;2.00;95.20
10812;DHT22;5458;51.496;7.334;2022-12-13T15:37:30;1.90;95.10
10812;DHT22;5458;51.496;7.334;2022-12-13T15:40:05;1.90;95.30
10812;DHT22;5458;51.496;7.334;2022-12-13T15:42:34;1.90;95.30
10812;DHT22;5458;51.496;7.334;2022-12-13T15:45:04;1.90;95.60
10812;DHT22;5458;51.496;7.334;2022-12-13T15:47:31;1.80;95.60
10812;DHT22;5458;51.496;7.334;2022-12-13T15:50:05;1.80;95.80
10812;DHT22;5458;51.496;7.334;2022-12-13T15:52:38;1.80;95.90
10812;DHT22;5458;51.496;7.334;2022-12-13T15:57:32;1.80;96.10
10812;DHT22;5458;51.496;7.334;2022-12-13T16:03:00;1.80;96.20
10812;DHT22;5458;51.496;7.334;2022-12-13T16:05:30;1.70;96.20
10812;DHT22;5458;51.496;7.334;2022-12-13T16:08:00;1.70;96.30
10812;DHT22;5458;51.496;7.334;2022-12-13T16:10:27;1.80;96.50
10812;DHT22;5458;51.496;7.334;2022-12-13T16:13:00;1.70;96.60
10812;DHT22;5458;51.496;7.334;2022-12-13T16:15:47;1.70;96.70
10812;DHT22;5458;51.496;7.334;2022-12-13T16:18:30;1.70;96.80
10812;DHT22;5458;51.496;7.334;2022-12-13T16:20:57;1.70;96.90
10812;DHT22;5458;51.496;7.334;2022-12-13T16:23:22;1.70;97.00
10812;DHT22;5458;51.496;7.334;2022-12-13T16:25:48;1.70;97.20
10812;DHT22;5458;51.496;7.334;2022-12-13T16:28:15;1.70;97.20
10812;DHT22;5458;51.496;7.334;2022-12-13T16:31:01;1.70;97.20
10812;DHT22;5458;51.496;7.334;2022-12-13T16:33:28;1.70;97.30
10812;DHT22;5458;51.496;7.334;2022-12-13T16:35:54;1.70;97.40
10812;DHT22;5458;51.496;7.334;2022-12-13T16:38:20;1.70;97.40
10812;DHT22;5458;51.496;7.334;2022-12-13T16:40:47;1.60;97.40
10812;DHT22;5458;51.496;7.334;2022-12-13T16:43:20;1.60;97.50
10812;DHT22;5458;51.496;7.334;2022-12-13T16:45:50;1.60;97.70
10812;DHT22;5458;51.496;7.334;2022-12-13T16:48:17;1.60;97.70
10812;DHT22;5458;51.496;7.334;2022-12-13T16:50:48;1.50;98.10
10812;DHT22;5458;51.496;7.334;2022-12-13T16:53:14;1.50;97.90
10812;DHT22;5458;51.496;7.334;2022-12-13T16:55:40;1.50;98.00
10812;DHT22;5458;51.496;7.334;2022-12-13T16:58:11;1.50;98.40
10812;DHT22;5458;51.496;7.334;2022-12-13T17:00:37;1.60;98.10
10812;DHT22;5458;51.496;7.334;2022-12-13T17:03:03;1.50;97.90
10812;DHT22;5458;51.496;7.334;2022-12-13T17:05:30;1.60;98.00
10812;DHT22;5458;51.496;7.334;2022-12-13T17:07:56;1.60;98.00
10812;DHT22;5458;51.496;7.334;2022-12-13T17:10:22;1.60;98.00
10812;DHT22;5458;51.496;7.334;2022-12-13T17:12:48;1.60;98.00
10812;DHT22;5458;51.496;7.334;2022-12-13T17:15:14;1.50;97.90
10812;DHT22;5458;51.496;7.334;2022-12-13T17:17:41;1.50;98.00
10812;DHT22;5458;51.496;7.334;2022-12-13T17:20:08;1.50;98.10
10812;DHT22;5458;51.496;7.334;2022-12-13T17:22:35;1.50;98.10
10812;DHT22;5458;51.496;7.334;2022-12-13T17:25:01;1.50;98.10
10812;DHT22;5458;51.496;7.334;2022-12-13T17:27:26;1.50;98.00
10812;DHT22;5458;51.496;7.334;2022-12-13T17:29:52;1.50;98.10
10812;DHT22;5458;51.496;7.334;2022-12-13T17:32:18;1.40;98.10
10812;DHT22;5458;51.496;7.334;2022-12-13T17:34:43;1.40;98.00
10812;DHT22;5458;51.496;7.334;2022-12-13T17:37:09;1.40;97.90
10812;DHT22;5458;51.496;7.334;2022-12-13T17:39:35;1.40;98.00
10812;DHT22;5458;51.496;7.334;2022-12-13T17:42:00;1.30;97.90
10812;DHT22;5458;51.496;7.334;2022-12-13T17:44:26;1.30;97.80
10812;DHT22;5458;51.496;7.334;2022-12-13T17:46:52;1.30;97.90
10812;DHT22;5458;51.496;7.334;2022-12-13T17:49:18;1.30;98.00
10812;DHT22;5458;51.496;7.334;2022-12-13T17:51:44;1.30;98.20
10812;DHT22;5458;51.496;7.334;2022-12-13T17:54:10;1.30;98.50
10812;DHT22;5458;51.496;7.334;2022-12-13T17:56:36;1.30;98.20
10812;DHT22;5458;51.496;7.334;2022-12-13T17:59:03;1.30;98.30
10812;DHT22;5458;51.496;7.334;2022-12-13T18:01:29;1.30;98.30
10812;DHT22;5458;51.496;7.334;2022-12-13T18:03:55;1.20;98.20
10812;DHT22;5458;51.496;7.334;2022-12-13T18:06:25;1.20;98.30
10812;DHT22;5458;51.496;7.334;2022-12-13T18:08:51;1.20;98.30
10812;DHT22;5458;51.496;7.334;2022-12-13T18:11:18;1.20;98.20
10812;DHT22;5458;51.496;7.334;2022-12-13T18:13:44;1.10;98.10
10812;DHT22;5458;51.496;7.334;2022-12-13T18:16:12;1.10;98.10
10812;DHT22;5458;51.496;7.334;2022-12-13T18:18:37;1.10;98.30
10812;DHT22;5458;51.496;7.334;2022-12-13T18:21:05;1.20;98.40
10812;DHT22;5458;51.496;7.334;2022-12-13T18:23:32;1.10;98.40
10812;DHT22;5458;51.496;7.334;2022-12-13T18:25:59;1.10;98.30
10812;DHT22;5458;51.496;7.334;2022-12-13T18:28:25;1.10;98.40
10812;DHT22;5458;51.496;7.334;2022-12-13T18:30:51;1.10;98.60
10812;DHT22;5458;51.496;7.334;2022-12-13T18:33:17;1.10;98.60
10812;DHT22;5458;51.496;7.334;2022-12-13T18:35:42;1.20;98.60
10812;DHT22;5458;51.496;7.334;2022-12-13T18:38:08;1.20;98.70
10812;DHT22;5458;51.496;7.334;2022-12-13T18:40:33;1.10;98.60